Terminal Aerodrome Forecast
Issued by NWS

Home | Current Version | Previous Version | Text Only | Print | Product List | Glossary On
Versions: 1 2 3 4 5 6 7 8 9 10 11 12 13
321
FTUS45 KRIW 131120
TAFCPR
TAF
KCPR 131120Z 1312/1412 21012G20KT P6SM FEW120 BKN250
     FM131600 22022G30KT P6SM SCT090 BKN200
     FM132200 26020G28KT P6SM FEW110
     FM140130 32012KT P6SM SCT100
     FM140600 23012KT P6SM BKN200=

USA.gov is the U.S. government's official web portal to all federal, state and local government web resources and services.